createdAt,value
2022-12-01T00:00:47.307Z,31.77
2022-12-01T00:03:20.467Z,31.90
2022-12-01T00:05:59.658Z,31.00
2022-12-01T00:08:34.002Z,30.73
2022-12-01T00:11:06.462Z,30.90
2022-12-01T00:13:41.643Z,32.60
2022-12-01T00:16:15.281Z,31.93
2022-12-01T00:18:50.278Z,30.13
2022-12-01T00:21:23.798Z,29.87
2022-12-01T00:23:57.954Z,28.87
2022-12-01T00:26:30.748Z,31.87
2022-12-01T00:29:04.838Z,29.40
2022-12-01T00:31:37.908Z,29.23
2022-12-01T00:34:16.643Z,28.87
2022-12-01T00:36:50.481Z,30.43
2022-12-01T00:39:23.425Z,29.17
2022-12-01T00:41:57.414Z,30.20
2022-12-01T00:44:34.424Z,32.37
2022-12-01T00:47:07.485Z,29.50
2022-12-01T00:49:40.597Z,30.63
2022-12-01T00:52:14.011Z,30.07
2022-12-01T00:54:47.344Z,30.93
2022-12-01T00:57:20.189Z,31.60
2022-12-01T00:59:54.394Z,32.43
2022-12-01T01:02:27.444Z,32.60
2022-12-01T01:05:03.148Z,31.43
2022-12-01T01:07:36.257Z,32.60
2022-12-01T01:10:09.444Z,31.73
2022-12-01T01:12:42.141Z,29.83
2022-12-01T01:15:16.297Z,30.77
2022-12-01T01:17:49.286Z,31.43
2022-12-01T01:20:22.339Z,30.77
2022-12-01T01:22:55.627Z,30.30
2022-12-01T01:25:28.665Z,29.77
2022-12-01T01:28:02.302Z,30.67
2022-12-01T01:30:40.129Z,29.23
2022-12-01T01:33:12.851Z,31.43
2022-12-01T01:35:45.793Z,32.17
2022-12-01T01:38:18.578Z,29.07
2022-12-01T01:40:51.403Z,31.80
2022-12-01T01:43:39.370Z,33.17
2022-12-01T01:46:14.462Z,29.33
2022-12-01T01:48:49.301Z,31.17
2022-12-01T01:51:23.967Z,29.27
2022-12-01T01:53:59.875Z,31.03
2022-12-01T01:56:33.061Z,28.70
2022-12-01T01:59:05.843Z,30.53
2022-12-01T02:01:39.988Z,30.07
2022-12-01T02:04:14.071Z,31.73
2022-12-01T02:06:48.000Z,31.50
2022-12-01T02:09:21.120Z,30.70
2022-12-01T02:12:02.391Z,30.57
2022-12-01T02:14:41.128Z,29.73
2022-12-01T02:17:21.296Z,32.60
2022-12-01T02:20:06.032Z,31.53
2022-12-01T02:22:52.209Z,32.70
2022-12-01T02:25:30.183Z,33.03
2022-12-01T02:28:15.294Z,32.13
2022-12-01T02:30:52.194Z,31.00
2022-12-01T02:33:27.043Z,33.87
2022-12-01T02:36:02.619Z,33.60
2022-12-01T02:38:39.695Z,33.37
2022-12-01T02:41:16.652Z,33.63
2022-12-01T02:43:52.983Z,33.97
2022-12-01T02:46:29.407Z,33.43
2022-12-01T02:49:04.827Z,33.40
2022-12-01T02:51:39.537Z,34.67
2022-12-01T02:54:14.896Z,35.53
2022-12-01T02:56:47.812Z,34.80
2022-12-01T02:59:21.008Z,34.77
2022-12-01T03:02:05.662Z,32.60
2022-12-01T03:04:53.796Z,32.33
2022-12-01T03:07:37.072Z,32.00
2022-12-01T03:10:13.982Z,30.23
2022-12-01T03:12:51.740Z,33.67
2022-12-01T03:15:29.976Z,33.57
2022-12-01T03:18:08.927Z,33.37
2022-12-01T03:20:43.714Z,33.40
2022-12-01T03:23:17.607Z,34.43
2022-12-01T03:25:52.147Z,31.83
2022-12-01T03:28:28.799Z,31.97
2022-12-01T03:31:05.209Z,31.97
2022-12-01T03:33:41.204Z,34.47
2022-12-01T03:36:16.746Z,34.77
2022-12-01T03:38:51.119Z,35.03
2022-12-01T03:41:26.610Z,30.90
2022-12-01T03:44:04.246Z,31.80
2022-12-01T03:46:44.780Z,34.00
2022-12-01T03:49:19.300Z,33.63
2022-12-01T03:52:01.624Z,33.37
2022-12-01T03:54:38.399Z,32.37
2022-12-01T03:57:13.020Z,32.20
2022-12-01T03:59:46.860Z,33.03
2022-12-01T04:02:20.027Z,30.53
2022-12-01T04:04:55.127Z,30.80
2022-12-01T04:07:28.080Z,31.40
2022-12-01T04:10:00.884Z,32.07
2022-12-01T04:12:33.175Z,31.80
2022-12-01T04:15:08.038Z,29.63
2022-12-01T04:17:43.583Z,30.27
2022-12-01T04:20:19.323Z,32.93
2022-12-01T04:22:52.577Z,30.27
2022-12-01T04:25:25.493Z,30.53
2022-12-01T04:27:58.307Z,28.13
2022-12-01T04:30:30.989Z,29.73
2022-12-01T04:33:04.831Z,32.07
2022-12-01T04:35:39.838Z,31.23
2022-12-01T04:38:13.210Z,31.20
2022-12-01T04:40:46.435Z,31.60
2022-12-01T04:43:19.263Z,29.90
2022-12-01T04:45:52.100Z,32.60
2022-12-01T04:48:24.847Z,30.33
2022-12-01T04:50:59.872Z,30.23
2022-12-01T04:53:33.026Z,31.37
2022-12-01T04:56:06.109Z,30.97
2022-12-01T04:58:38.940Z,33.23
2022-12-01T05:01:12.999Z,31.80
2022-12-01T05:03:46.532Z,32.27
2022-12-01T05:06:23.340Z,32.77
2022-12-01T05:08:58.265Z,34.47
2022-12-01T05:11:32.759Z,33.27
2022-12-01T05:14:06.720Z,33.90
2022-12-01T05:16:39.947Z,34.73
2022-12-01T05:19:32.605Z,32.27
2022-12-01T05:22:09.310Z,32.40
2022-12-01T05:24:42.142Z,36.60
2022-12-01T05:27:14.952Z,36.07
2022-12-01T05:29:48.167Z,34.07
2022-12-01T05:32:21.802Z,35.37
2022-12-01T05:35:04.186Z,35.77
2022-12-01T05:37:39.013Z,33.90
2022-12-01T05:40:12.325Z,33.37
2022-12-01T05:42:45.106Z,31.77
2022-12-01T05:45:17.993Z,33.03
2022-12-01T05:47:50.747Z,33.77
2022-12-01T05:50:23.740Z,33.70
2022-12-01T05:52:57.913Z,33.20
2022-12-01T05:55:31.193Z,33.57
2022-12-01T05:58:04.117Z,32.30
2022-12-01T06:00:43.717Z,32.23
2022-12-01T06:03:18.864Z,34.37
2022-12-01T06:05:51.839Z,31.37
2022-12-01T06:08:26.112Z,32.87
2022-12-01T06:10:59.137Z,32.53
2022-12-01T06:13:32.510Z,33.23
2022-12-01T06:16:07.565Z,33.10
2022-12-01T06:18:40.645Z,33.83
2022-12-01T06:21:14.105Z,35.40
2022-12-01T06:23:48.406Z,34.30
2022-12-01T06:26:21.876Z,35.40
2022-12-01T06:28:54.723Z,33.07
2022-12-01T06:31:27.604Z,34.60
2022-12-01T06:34:00.810Z,35.47
2022-12-01T06:36:33.677Z,37.27
2022-12-01T06:39:09.998Z,37.47
2022-12-01T06:41:42.744Z,35.97
2022-12-01T06:44:15.437Z,34.60
2022-12-01T06:46:52.847Z,36.33
2022-12-01T06:49:25.706Z,35.47
2022-12-01T06:52:00.753Z,34.30
2022-12-01T06:54:37.016Z,35.37
2022-12-01T06:57:09.901Z,36.00
2022-12-01T06:59:45.639Z,34.83
2022-12-01T07:02:22.717Z,32.63
2022-12-01T07:04:55.508Z,34.27
2022-12-01T07:07:28.415Z,33.17
2022-12-01T07:10:03.000Z,35.67
2022-12-01T07:12:36.133Z,35.20
2022-12-01T07:15:10.024Z,35.07
2022-12-01T07:17:43.512Z,35.27
2022-12-01T07:20:17.011Z,36.87
2022-12-01T07:22:50.307Z,36.97
2022-12-01T07:25:24.484Z,35.53
2022-12-01T07:27:57.715Z,38.17
2022-12-01T07:30:33.317Z,39.67
2022-12-01T07:33:09.558Z,38.30
2022-12-01T07:35:44.841Z,39.17
2022-12-01T07:38:22.134Z,39.73
2022-12-01T07:40:56.878Z,40.90
2022-12-01T07:43:30.520Z,42.77
2022-12-01T07:46:07.307Z,43.00
2022-12-01T07:48:40.788Z,41.07
2022-12-01T07:51:15.940Z,43.47
2022-12-01T07:53:49.179Z,42.77
2022-12-01T07:56:23.995Z,43.60
2022-12-01T07:58:56.953Z,44.67
2022-12-01T08:01:29.813Z,46.23
2022-12-01T08:04:02.875Z,45.83
2022-12-01T08:06:35.737Z,45.90
2022-12-01T08:09:08.830Z,45.57
2022-12-01T08:11:43.173Z,46.40
2022-12-01T08:14:16.072Z,46.53
2022-12-01T08:16:50.400Z,46.17
2022-12-01T08:19:23.139Z,46.93
2022-12-01T08:21:55.883Z,48.63
2022-12-01T08:24:28.790Z,46.80
2022-12-01T08:27:05.720Z,46.27
2022-12-01T08:29:38.749Z,46.33
2022-12-01T08:32:11.619Z,45.20
2022-12-01T08:34:45.693Z,45.10
2022-12-01T08:37:20.919Z,46.93
2022-12-01T08:40:13.575Z,47.90
2022-12-01T08:42:48.513Z,46.70
2022-12-01T08:45:23.137Z,45.40
2022-12-01T08:47:58.956Z,44.83
2022-12-01T08:50:32.464Z,45.10
2022-12-01T08:53:06.014Z,45.87
2022-12-01T08:55:38.854Z,47.00
2022-12-01T08:58:13.135Z,44.37
2022-12-01T09:00:45.827Z,44.07
2022-12-01T09:03:18.786Z,47.07
2022-12-01T09:05:52.203Z,47.23
2022-12-01T09:08:35.130Z,46.57
2022-12-01T09:11:09.362Z,44.93
2022-12-01T09:13:44.274Z,50.80
2022-12-01T09:16:18.380Z,47.97
2022-12-01T09:18:51.592Z,46.03
2022-12-01T09:21:25.798Z,44.80
2022-12-01T09:23:58.940Z,47.27
2022-12-01T09:26:32.217Z,44.30
2022-12-01T09:29:07.396Z,45.60
2022-12-01T09:31:40.577Z,43.80
2022-12-01T09:34:14.724Z,44.93
2022-12-01T09:36:48.726Z,42.97
2022-12-01T09:39:22.071Z,44.13
2022-12-01T09:41:56.395Z,44.97
2022-12-01T09:44:35.578Z,42.20
2022-12-01T09:47:11.406Z,43.63
2022-12-01T09:49:48.948Z,41.03
2022-12-01T09:52:23.083Z,41.30
2022-12-01T09:54:57.002Z,43.07
2022-12-01T09:57:31.935Z,40.50
2022-12-01T10:00:09.125Z,41.50
2022-12-01T10:02:45.530Z,42.07
2022-12-01T10:05:22.524Z,38.93
2022-12-01T10:07:57.397Z,40.90
2022-12-01T10:10:32.843Z,40.47
2022-12-01T10:13:09.842Z,39.73
2022-12-01T10:15:50.781Z,36.57
2022-12-01T10:18:31.257Z,37.47
2022-12-01T10:21:06.637Z,37.40
2022-12-01T10:23:48.592Z,35.20
2022-12-01T10:26:26.535Z,36.43
2022-12-01T10:29:09.275Z,38.73
2022-12-01T10:31:47.941Z,34.93
2022-12-01T10:34:23.470Z,35.87
2022-12-01T10:36:56.866Z,38.43
2022-12-01T10:39:30.693Z,36.67
2022-12-01T10:42:05.399Z,37.00
2022-12-01T10:44:38.430Z,38.07
2022-12-01T10:47:18.317Z,38.20
2022-12-01T10:49:51.606Z,36.73
2022-12-01T10:52:32.687Z,36.03
2022-12-01T10:55:07.478Z,37.30
2022-12-01T10:57:45.490Z,36.63
2022-12-01T11:00:57.564Z,35.43
2022-12-01T11:03:22.906Z,34.40
2022-12-01T11:05:58.330Z,36.50
2022-12-01T11:08:35.288Z,36.83
2022-12-01T11:11:24.218Z,36.70
2022-12-01T11:13:58.881Z,37.17
2022-12-01T11:16:46.327Z,36.60
2022-12-01T11:19:28.158Z,43.50
2022-12-01T11:22:01.797Z,41.20
2022-12-01T11:24:42.925Z,36.23
2022-12-01T11:27:18.605Z,37.30
2022-12-01T11:29:55.976Z,37.40
2022-12-01T11:32:30.105Z,37.10
2022-12-01T11:35:05.908Z,36.20
2022-12-01T11:37:41.937Z,35.63
2022-12-01T11:40:17.974Z,35.23
2022-12-01T11:42:51.668Z,36.70
2022-12-01T11:45:27.435Z,35.23
2022-12-01T11:48:06.295Z,36.83
2022-12-01T11:50:41.981Z,35.37
2022-12-01T11:53:27.450Z,34.20
2022-12-01T11:56:17.419Z,33.43
2022-12-01T11:58:51.552Z,34.73
2022-12-01T12:01:30.227Z,33.10
2022-12-01T12:04:10.537Z,35.53
2022-12-01T12:06:49.786Z,36.73
2022-12-01T12:09:32.633Z,34.23
2022-12-01T12:12:12.584Z,34.90
2022-12-01T12:14:50.554Z,33.70
2022-12-01T12:17:43.390Z,32.97
2022-12-01T12:20:28.694Z,32.20
2022-12-01T12:23:10.859Z,33.30
2022-12-01T12:25:52.151Z,32.30
2022-12-01T12:28:31.821Z,32.47
2022-12-01T12:31:10.498Z,33.17
2022-12-01T12:33:58.622Z,31.83
2022-12-01T12:36:37.191Z,30.30
2022-12-01T12:39:24.094Z,32.23
2022-12-01T12:42:07.813Z,30.13
2022-12-01T12:44:47.397Z,30.87
2022-12-01T12:47:26.564Z,30.87
2022-12-01T12:50:06.030Z,30.53
2022-12-01T12:52:42.143Z,29.70
2022-12-01T12:55:20.430Z,28.53
2022-12-01T12:57:55.064Z,30.50
2022-12-01T13:00:28.678Z,34.93
2022-12-01T13:03:07.058Z,32.53
2022-12-01T13:05:44.082Z,29.33
2022-12-01T13:08:19.041Z,35.40
2022-12-01T13:10:55.450Z,28.80
2022-12-01T13:13:32.742Z,29.93
2022-12-01T13:16:11.696Z,29.43
2022-12-01T13:18:46.948Z,28.80
2022-12-01T13:21:21.606Z,33.47
2022-12-01T13:23:54.849Z,31.37
2022-12-01T13:26:29.291Z,31.13
2022-12-01T13:29:06.660Z,31.07
2022-12-01T13:31:45.641Z,32.37
2022-12-01T13:34:27.560Z,30.60
2022-12-01T13:37:05.570Z,30.17
2022-12-01T13:39:40.558Z,29.13
2022-12-01T13:42:22.551Z,29.17
2022-12-01T13:44:56.924Z,29.60
2022-12-01T13:47:38.624Z,30.70
2022-12-01T13:50:29.782Z,31.37
2022-12-01T13:53:10.798Z,31.83
2022-12-01T13:56:00.784Z,30.67
2022-12-01T13:58:45.671Z,29.90
2022-12-01T14:01:38.032Z,29.57
2022-12-01T14:04:38.104Z,29.80
2022-12-01T14:07:16.115Z,29.93
2022-12-01T14:09:50.549Z,29.97
2022-12-01T14:12:25.224Z,29.57
2022-12-01T14:15:01.686Z,28.37
2022-12-01T14:17:36.123Z,28.87
2022-12-01T14:20:19.335Z,31.23
2022-12-01T14:23:04.462Z,30.00
2022-12-01T14:25:37.705Z,28.20
2022-12-01T14:28:15.369Z,28.07
2022-12-01T14:31:07.364Z,28.73
2022-12-01T14:33:44.909Z,30.40
2022-12-01T14:36:28.119Z,28.37
2022-12-01T14:39:03.567Z,28.93
2022-12-01T14:41:41.157Z,28.53
2022-12-01T14:44:25.778Z,30.23
2022-12-01T14:47:02.711Z,28.03
2022-12-01T14:49:39.467Z,29.07
2022-12-01T14:52:20.112Z,28.83
2022-12-01T14:54:57.676Z,27.63
2022-12-01T14:57:38.216Z,28.47
2022-12-01T15:00:15.357Z,28.87
2022-12-01T15:02:52.784Z,29.17
2022-12-01T15:05:27.258Z,29.63
2022-12-01T15:11:57.647Z,27.00
2022-12-01T15:14:36.663Z,28.77
2022-12-01T15:17:24.449Z,27.73
2022-12-01T15:19:58.757Z,25.53
2022-12-01T15:22:35.496Z,26.93
2022-12-01T15:25:09.740Z,29.03
2022-12-01T15:27:45.134Z,28.27
2022-12-01T15:30:19.276Z,29.33
2022-12-01T15:32:52.751Z,31.07
2022-12-01T15:35:30.148Z,28.00
2022-12-01T15:38:03.630Z,29.87
2022-12-01T15:43:35.083Z,30.10
2022-12-01T15:46:12.878Z,31.73
2022-12-01T15:48:47.184Z,30.53
2022-12-01T15:51:25.760Z,32.17
2022-12-01T15:54:00.011Z,31.53
2022-12-01T15:56:34.017Z,31.47
2022-12-01T15:59:09.570Z,30.80
2022-12-01T16:01:46.384Z,31.67
2022-12-01T16:04:20.299Z,31.23
2022-12-01T16:06:56.701Z,31.80
2022-12-01T16:09:31.373Z,30.07
2022-12-01T16:12:08.660Z,29.70
2022-12-01T16:14:50.113Z,31.50
2022-12-01T16:17:29.122Z,32.67
2022-12-01T16:20:20.888Z,31.37
2022-12-01T16:23:01.014Z,32.67
2022-12-01T16:25:36.168Z,33.50
2022-12-01T16:28:19.681Z,32.63
2022-12-01T16:30:53.951Z,34.87
2022-12-01T16:33:28.561Z,37.60
2022-12-01T16:36:01.611Z,33.40
2022-12-01T16:38:36.076Z,34.43
2022-12-01T16:41:16.373Z,32.10
2022-12-01T16:44:05.823Z,33.17
2022-12-01T16:46:42.758Z,32.40
2022-12-01T16:49:15.598Z,31.57
2022-12-01T16:51:57.036Z,30.47
2022-12-01T16:54:48.112Z,29.03
2022-12-01T16:57:21.124Z,30.23
2022-12-01T16:59:54.016Z,30.60
2022-12-01T17:02:26.816Z,31.40
2022-12-01T17:04:59.535Z,31.03
2022-12-01T17:07:32.439Z,30.77
2022-12-01T17:10:07.675Z,31.03
2022-12-01T17:12:40.604Z,29.93
2022-12-01T17:15:13.370Z,31.47
2022-12-01T17:17:46.243Z,29.67
2022-12-01T17:20:19.008Z,31.20
2022-12-01T17:22:51.839Z,31.03
2022-12-01T17:25:27.351Z,30.87
2022-12-01T17:28:03.128Z,30.83
2022-12-01T17:30:37.767Z,29.07
2022-12-01T17:33:10.973Z,31.03
2022-12-01T17:35:44.231Z,33.47
2022-12-01T17:38:17.412Z,31.83
2022-12-01T17:41:01.777Z,34.73
2022-12-01T17:43:35.343Z,43.23
2022-12-01T17:46:09.287Z,30.20
2022-12-01T17:48:43.095Z,31.90
2022-12-01T17:51:15.958Z,30.93
2022-12-01T17:53:49.816Z,30.47
2022-12-01T17:56:27.476Z,29.43
2022-12-01T17:59:00.665Z,29.10
2022-12-01T18:01:33.727Z,32.00
2022-12-01T18:04:06.710Z,30.57
2022-12-01T18:06:39.400Z,31.40
2022-12-01T18:09:13.554Z,31.80
2022-12-01T18:11:48.177Z,30.80
2022-12-01T18:14:21.007Z,29.80
2022-12-01T18:16:54.096Z,30.90
2022-12-01T18:19:26.958Z,30.33
2022-12-01T18:21:59.868Z,30.67
2022-12-01T18:24:32.766Z,30.20
2022-12-01T18:27:06.942Z,35.33
2022-12-01T18:29:42.717Z,31.87
2022-12-01T18:32:16.734Z,36.70
2022-12-01T18:34:50.468Z,32.20
2022-12-01T18:37:23.493Z,28.50
2022-12-01T18:39:56.393Z,28.30
2022-12-01T18:42:30.527Z,31.43
2022-12-01T18:45:05.799Z,29.97
2022-12-01T18:47:38.460Z,31.53
2022-12-01T18:50:11.421Z,32.10
2022-12-01T18:52:44.114Z,31.20
2022-12-01T18:55:16.801Z,29.17
2022-12-01T18:57:50.842Z,29.73
2022-12-01T19:00:23.847Z,30.43
2022-12-01T19:02:56.736Z,30.33
2022-12-01T19:05:30.707Z,28.73
2022-12-01T19:08:03.444Z,29.70
2022-12-01T19:10:36.353Z,28.43
2022-12-01T19:13:10.735Z,28.30
2022-12-01T19:15:43.759Z,29.60
2022-12-01T19:18:16.613Z,28.17
2022-12-01T19:20:49.421Z,30.47
2022-12-01T19:23:22.204Z,28.77
2022-12-01T19:25:54.908Z,28.40
2022-12-01T19:28:29.388Z,30.80
2022-12-01T19:31:06.260Z,30.93
2022-12-01T19:33:39.208Z,28.53
2022-12-01T19:36:12.685Z,27.97
2022-12-01T19:38:45.510Z,28.30
2022-12-01T19:41:20.373Z,29.13
2022-12-01T19:43:54.723Z,27.87
2022-12-01T19:46:28.789Z,29.03
2022-12-01T19:49:02.317Z,30.63
2022-12-01T19:51:36.515Z,30.60
2022-12-01T19:54:11.573Z,29.20
2022-12-01T19:56:46.473Z,28.80
2022-12-01T19:59:20.458Z,28.60
2022-12-01T20:01:53.302Z,28.20
2022-12-01T20:04:26.031Z,28.33
2022-12-01T20:06:58.832Z,28.10
2022-12-01T20:09:31.442Z,29.63
2022-12-01T20:12:04.472Z,27.73
2022-12-01T20:14:38.597Z,30.97
2022-12-01T20:17:15.728Z,30.77
2022-12-01T20:19:48.742Z,29.40
2022-12-01T20:22:21.515Z,29.97
2022-12-01T20:24:54.278Z,31.03
2022-12-01T20:27:27.087Z,30.03
2022-12-01T20:30:01.181Z,29.93
2022-12-01T20:32:34.634Z,29.40
2022-12-01T20:35:07.535Z,31.83
2022-12-01T20:37:40.246Z,30.60
2022-12-01T20:40:13.899Z,31.40
2022-12-01T20:42:46.867Z,30.90
2022-12-01T20:45:20.998Z,29.50
2022-12-01T20:47:53.913Z,29.80
2022-12-01T20:50:26.541Z,32.00
2022-12-01T20:52:59.299Z,32.10
2022-12-01T20:55:32.161Z,30.83
2022-12-01T20:58:05.083Z,31.30
2022-12-01T21:00:40.283Z,29.97
2022-12-01T21:03:13.666Z,32.33
2022-12-01T21:05:46.370Z,31.00
2022-12-01T21:08:19.124Z,30.70
2022-12-01T21:10:51.774Z,31.40
2022-12-01T21:13:44.844Z,30.50
2022-12-01T21:16:27.039Z,29.33
2022-12-01T21:19:01.052Z,30.77
2022-12-01T21:21:36.100Z,30.27
2022-12-01T21:24:13.427Z,28.57
2022-12-01T21:26:47.737Z,29.80
2022-12-01T21:29:21.735Z,29.13
2022-12-01T21:31:57.378Z,28.60
2022-12-01T21:34:30.311Z,28.20
2022-12-01T21:37:03.657Z,27.93
2022-12-01T21:39:36.366Z,29.17
2022-12-01T21:42:15.061Z,30.13
2022-12-01T21:44:48.240Z,28.07
2022-12-01T21:47:23.207Z,26.30
2022-12-01T21:49:57.294Z,27.43
2022-12-01T21:52:32.767Z,27.37
2022-12-01T21:55:09.896Z,28.60
2022-12-01T21:57:43.952Z,26.07
2022-12-01T22:00:27.700Z,25.63
2022-12-01T22:03:22.436Z,26.27
2022-12-01T22:06:27.649Z,28.23
2022-12-01T22:08:51.872Z,26.57
2022-12-01T22:11:25.209Z,25.43
2022-12-01T22:14:01.038Z,27.23
2022-12-01T22:16:34.763Z,26.03
2022-12-01T22:19:23.216Z,26.43
2022-12-01T22:21:59.985Z,26.17
2022-12-01T22:24:39.238Z,25.97
2022-12-01T22:27:36.108Z,25.87
2022-12-01T22:30:14.950Z,24.97
2022-12-01T22:32:55.927Z,27.03
2022-12-01T22:35:37.410Z,25.93
2022-12-01T22:38:37.240Z,26.20
2022-12-01T22:41:12.637Z,26.00
2022-12-01T22:43:47.363Z,25.63
2022-12-01T22:46:27.775Z,25.87
2022-12-01T22:49:02.607Z,26.07
2022-12-01T22:51:42.232Z,25.47
2022-12-01T22:54:28.408Z,25.37
2022-12-01T22:57:06.847Z,26.30
2022-12-01T22:59:41.524Z,27.47
2022-12-01T23:02:20.963Z,25.70
2022-12-01T23:04:56.673Z,26.70
2022-12-01T23:07:34.935Z,26.63
2022-12-01T23:10:15.271Z,26.03
2022-12-01T23:12:49.152Z,25.90
2022-12-01T23:15:25.560Z,27.40
2022-12-01T23:17:59.917Z,27.37
2022-12-01T23:20:34.172Z,26.17
2022-12-01T23:23:11.751Z,26.20
2022-12-01T23:25:45.184Z,25.63
2022-12-01T23:28:18.708Z,24.77
2022-12-01T23:30:52.758Z,25.10
2022-12-01T23:33:26.025Z,26.17
2022-12-01T23:35:59.403Z,25.97
2022-12-01T23:38:38.345Z,25.77
2022-12-01T23:41:13.628Z,24.67
2022-12-01T23:43:47.026Z,24.87
2022-12-01T23:46:21.453Z,24.40
2022-12-01T23:48:55.153Z,26.23
2022-12-01T23:51:29.518Z,25.80
2022-12-01T23:54:09.413Z,25.37
2022-12-01T23:56:44.301Z,25.23
2022-12-01T23:59:17.324Z,26.23
